Time;durP1;ratioP1;P1;durP2;ratioP2;P2;SDS_P1;SDS_P2;PMS_P1;PMS_P2;Temp;Humidity;BMP_temperature;BMP_pressure;BME280_temperature;BME280_humidity;BME280_pressure;Samples;Min_cycle;Max_cycle;Signal;HPM_P1;HPM_P2
2023/07/15 00:00:50;;;;;;;3.93;3.73;;;24.30;69.10;;;;;;5015133;28;20426;-65
2023/07/15 00:03:23;;;;;;;4.10;3.90;;;24.30;69.60;;;;;;5013818;28;20607;-64
2023/07/15 00:05:49;;;;;;;5.63;4.10;;;24.30;69.20;;;;;;5000237;28;20971;-65
2023/07/15 00:08:15;;;;;;;4.00;3.80;;;24.30;68.50;;;;;;5013630;28;20426;-64
2023/07/15 00:10:43;;;;;;;4.17;3.87;;;24.30;70.10;;;;;;5013172;28;20934;-64
2023/07/15 00:13:14;;;;;;;3.70;3.50;;;24.40;68.80;;;;;;5014154;28;20425;-64
2023/07/15 00:15:45;;;;;;;4.10;3.80;;;24.40;69.00;;;;;;5023763;28;20555;-64
2023/07/15 00:18:12;;;;;;;3.90;3.70;;;24.40;69.20;;;;;;5032839;28;20505;-64
2023/07/15 00:20:38;;;;;;;3.90;3.67;;;24.40;68.60;;;;;;5034549;28;20435;-63
2023/07/15 00:23:17;;;;;;;7.17;4.20;;;24.40;68.90;;;;;;5033289;28;20543;-64
2023/07/15 00:25:44;;;;;;;3.93;3.63;;;24.40;68.60;;;;;;5019510;28;20198;-65
2023/07/15 00:28:10;;;;;;;3.77;3.57;;;24.40;68.80;;;;;;5033787;28;20496;-64
2023/07/15 00:30:36;;;;;;;4.07;3.87;;;24.40;68.50;;;;;;5033309;28;20425;-64
2023/07/15 00:33:03;;;;;;;4.03;3.80;;;24.40;69.20;;;;;;5031496;28;20433;-64
2023/07/15 00:35:30;;;;;;;3.93;3.53;;;24.30;70.00;;;;;;5034420;28;20413;-63
2023/07/15 00:37:56;;;;;;;4.00;3.70;;;24.40;69.40;;;;;;5037895;28;20425;-61
2023/07/15 00:40:22;;;;;;;5.27;3.70;;;24.40;69.40;;;;;;5033098;28;20468;-65
2023/07/15 00:43:25;;;;;;;4.50;4.20;;;24.30;69.00;;;;;;5033589;28;20503;-65
2023/07/15 00:46:16;;;;;;;4.50;4.30;;;24.40;69.00;;;;;;5034272;28;20427;-65
2023/07/15 00:48:48;;;;;;;4.10;3.80;;;24.30;69.00;;;;;;5033819;28;20451;-65
2023/07/15 00:51:14;;;;;;;3.87;3.57;;;24.30;69.40;;;;;;5032819;28;20520;-65
2023/07/15 00:53:40;;;;;;;5.27;4.77;;;24.30;70.00;;;;;;5033710;28;20520;-65
2023/07/15 00:56:06;;;;;;;4.10;3.90;;;24.30;69.30;;;;;;5014387;28;20663;-65
2023/07/15 00:58:32;;;;;;;4.03;3.80;;;24.30;69.70;;;;;;5034212;28;20271;-65
2023/07/15 01:00:58;;;;;;;4.80;4.50;;;24.30;70.10;;;;;;5032751;28;20187;-61
2023/07/15 01:03:23;;;;;;;4.00;3.80;;;24.40;69.40;;;;;;5032273;28;20556;-65
2023/07/15 01:05:49;;;;;;;3.80;3.50;;;24.30;69.20;;;;;;5034203;28;20626;-65
2023/07/15 01:08:15;;;;;;;4.07;3.87;;;24.20;69.70;;;;;;5032347;28;20218;-65
2023/07/15 01:10:40;;;;;;;4.50;4.10;;;24.20;70.10;;;;;;5033117;28;20265;-64
2023/07/15 01:13:08;;;;;;;4.40;4.00;;;24.10;69.90;;;;;;5031851;28;20187;-64
2023/07/15 01:15:34;;;;;;;4.20;3.90;;;24.20;70.20;;;;;;5033709;28;20297;-65
2023/07/15 01:18:00;;;;;;;5.13;3.97;;;24.20;70.60;;;;;;5031787;28;20524;-61
2023/07/15 01:20:25;;;;;;;3.90;3.70;;;24.20;70.00;;;;;;5032812;28;20684;-65
2023/07/15 01:22:51;;;;;;;4.53;4.23;;;24.30;69.90;;;;;;5032738;28;20229;-65
2023/07/15 01:25:17;;;;;;;3.87;3.60;;;24.30;69.60;;;;;;5032507;28;20323;-65
2023/07/15 01:27:43;;;;;;;8.10;3.97;;;24.30;69.70;;;;;;5032216;28;20920;-65
2023/07/15 01:30:09;;;;;;;4.53;4.23;;;24.20;69.60;;;;;;5014078;28;20183;-64
2023/07/15 01:32:35;;;;;;;3.73;3.53;;;24.10;69.30;;;;;;5019424;28;20198;-65
2023/07/15 01:35:04;;;;;;;3.73;3.53;;;24.10;71.50;;;;;;5032592;28;20425;-64
2023/07/15 01:37:30;;;;;;;6.23;3.57;;;24.30;70.60;;;;;;5032514;28;20590;-65
2023/07/15 01:39:56;;;;;;;3.90;3.70;;;24.20;69.60;;;;;;5031288;28;20971;-63
2023/07/15 01:42:22;;;;;;;3.90;3.70;;;24.20;69.60;;;;;;5031689;28;20341;-65
2023/07/15 01:44:48;;;;;;;4.37;4.07;;;24.20;69.50;;;;;;5031430;28;20531;-65
2023/07/15 01:47:13;;;;;;;4.43;4.03;;;24.20;69.10;;;;;;5031270;28;20185;-65
2023/07/15 01:49:39;;;;;;;4.70;4.30;;;24.20;69.20;;;;;;5032156;28;20201;-65
2023/07/15 01:52:06;;;;;;;3.77;3.57;;;24.20;70.10;;;;;;5031572;28;20200;-65
2023/07/15 01:54:32;;;;;;;4.47;4.20;;;24.30;69.90;;;;;;5031876;28;20178;-64
2023/07/15 01:56:57;;;;;;;4.30;3.90;;;24.30;69.30;;;;;;5033423;28;20822;-65
2023/07/15 01:59:23;;;;;;;4.13;3.73;;;24.20;69.40;;;;;;5031424;28;20205;-65
2023/07/15 02:01:49;;;;;;;4.13;3.77;;;24.10;69.80;;;;;;5030681;28;20289;-65
2023/07/15 02:04:15;;;;;;;4.03;3.80;;;24.10;70.00;;;;;;5031719;28;20633;-64
2023/07/15 02:06:40;;;;;;;4.00;3.70;;;24.10;70.00;;;;;;5032121;28;20189;-65
2023/07/15 02:09:07;;;;;;;4.30;4.07;;;24.10;71.30;;;;;;5031229;28;20201;-64
2023/07/15 02:11:34;;;;;;;4.03;3.80;;;24.10;69.80;;;;;;5032578;28;20190;-64
2023/07/15 02:14:00;;;;;;;3.73;3.53;;;24.10;70.00;;;;;;5031742;28;20503;-60
2023/07/15 02:16:27;;;;;;;3.80;3.60;;;24.10;70.00;;;;;;5030867;28;20555;-64
2023/07/15 02:18:53;;;;;;;3.90;3.70;;;24.10;71.90;;;;;;5032140;28;20189;-64
2023/07/15 02:21:19;;;;;;;3.80;3.50;;;24.10;70.50;;;;;;5031288;28;20432;-64
2023/07/15 02:23:45;;;;;;;3.57;3.37;;;24.10;70.80;;;;;;5030577;28;20244;-64
2023/07/15 02:26:11;;;;;;;3.80;3.50;;;24.00;70.10;;;;;;5014134;28;20455;-65
2023/07/15 02:28:37;;;;;;;3.97;3.77;;;24.00;70.90;;;;;;5031445;28;20421;-65
2023/07/15 02:31:04;;;;;;;3.53;3.33;;;24.10;72.80;;;;;;5030640;28;20486;-61
2023/07/15 02:33:30;;;;;;;4.00;3.70;;;24.10;72.70;;;;;;5031841;28;20273;-64
2023/07/15 02:35:55;;;;;;;3.97;3.70;;;24.00;71.50;;;;;;5031494;28;20524;-65
2023/07/15 02:38:24;;;;;;;4.10;3.90;;;24.10;72.40;;;;;;5030408;28;20353;-65
2023/07/15 02:40:50;;;;;;;4.10;3.80;;;24.10;72.60;;;;;;5031587;28;20529;-65
2023/07/15 02:43:16;;;;;;;3.73;3.53;;;24.00;69.90;;;;;;5030515;28;20491;-65
2023/07/15 02:45:41;;;;;;;3.77;3.47;;;24.00;71.70;;;;;;5031079;28;20447;-65
2023/07/15 02:48:07;;;;;;;3.93;3.63;;;24.00;74.00;;;;;;5013256;28;20193;-64
2023/07/15 02:50:33;;;;;;;3.70;3.40;;;24.10;73.40;;;;;;5032361;28;20189;-65
2023/07/15 02:52:58;;;;;;;3.80;3.50;;;24.10;73.10;;;;;;5030905;28;20182;-64
2023/07/15 02:55:27;;;;;;;3.53;3.23;;;24.00;71.00;;;;;;5031135;28;20194;-65
2023/07/15 02:57:53;;;;;;;3.87;3.60;;;24.00;70.90;;;;;;5031236;28;20198;-65
2023/07/15 03:00:19;;;;;;;3.43;3.23;;;23.90;70.50;;;;;;5029636;28;20465;-65
2023/07/15 03:02:47;;;;;;;3.57;3.37;;;23.90;71.70;;;;;;5012061;28;20272;-65
2023/07/15 03:05:15;;;;;;;6.10;4.20;;;23.90;70.70;;;;;;5028183;28;20205;-65
2023/07/15 03:07:45;;;;;;;3.73;3.47;;;23.80;73.00;;;;;;5031351;28;20483;-65
2023/07/15 03:10:15;;;;;;;4.07;3.73;;;23.80;71.80;;;;;;5030077;28;20429;-64
2023/07/15 03:12:42;;;;;;;3.63;3.43;;;23.80;71.20;;;;;;5031750;28;20774;-65
2023/07/15 03:15:09;;;;;;;3.83;3.63;;;23.60;71.60;;;;;;5030016;28;20936;-64
2023/07/15 03:17:36;;;;;;;3.40;3.20;;;23.60;71.60;;;;;;5030641;28;20487;-65
2023/07/15 03:20:15;;;;;;;3.60;3.40;;;23.70;72.10;;;;;;5012664;28;20825;-64
2023/07/15 03:22:41;;;;;;;5.40;3.70;;;23.70;72.10;;;;;;5032208;28;20437;-65
2023/07/15 03:25:09;;;;;;;3.97;3.77;;;23.70;71.80;;;;;;5030718;28;20504;-61
2023/07/15 03:27:35;;;;;;;6.20;3.93;;;23.70;73.10;;;;;;5015508;28;20456;-65
2023/07/15 03:30:01;;;;;;;3.53;3.23;;;23.80;72.20;;;;;;5031503;28;20971;-65
2023/07/15 03:32:26;;;;;;;3.80;3.50;;;23.70;71.60;;;;;;5029708;28;20325;-65
2023/07/15 03:34:52;;;;;;;3.43;3.23;;;23.80;73.80;;;;;;5030224;28;20228;-65
2023/07/15 03:37:18;;;;;;;3.90;3.60;;;23.80;73.80;;;;;;5030739;28;20181;-65
2023/07/15 03:39:43;;;;;;;3.83;3.53;;;23.80;74.40;;;;;;5030441;28;20182;-66
2023/07/15 03:42:09;;;;;;;4.37;3.97;;;23.90;75.00;;;;;;5029638;28;20236;-65
2023/07/15 03:44:35;;;;;;;4.40;4.20;;;23.90;77.80;;;;;;5030979;28;20194;-65
2023/07/15 03:47:01;;;;;;;4.10;3.90;;;23.90;77.10;;;;;;5030548;28;20634;-65
2023/07/15 03:49:27;;;;;;;4.03;3.83;;;23.90;77.30;;;;;;5029752;28;20178;-65
2023/07/15 03:51:52;;;;;;;4.20;4.00;;;23.90;79.10;;;;;;5031172;28;20201;-65
2023/07/15 03:54:18;;;;;;;4.10;3.80;;;23.90;78.20;;;;;;5028958;28;20433;-62
2023/07/15 03:56:44;;;;;;;5.10;4.60;;;23.80;79.00;;;;;;5031088;28;20240;-65
2023/07/15 03:59:09;;;;;;;4.23;4.03;;;23.80;79.40;;;;;;5012327;28;20175;-62
2023/07/15 04:01:35;;;;;;;4.50;4.20;;;23.70;80.90;;;;;;5030375;28;20541;-65
2023/07/15 04:04:07;;;;;;;4.53;4.33;;;23.60;82.20;;;;;;5030765;28;20186;-65
2023/07/15 04:06:33;;;;;;;4.93;4.57;;;23.60;81.00;;;;;;5030861;28;20190;-62
2023/07/15 04:08:58;;;;;;;4.60;4.27;;;23.60;81.70;;;;;;5030970;28;20892;-65
2023/07/15 04:11:24;;;;;;;5.07;4.77;;;23.50;82.30;;;;;;5029830;28;20276;-64
2023/07/15 04:13:50;;;;;;;4.60;4.30;;;23.50;82.70;;;;;;5034339;28;20186;-65
2023/07/15 04:16:16;;;;;;;4.20;4.00;;;23.50;83.30;;;;;;5032597;28;20257;-65
2023/07/15 04:18:45;;;;;;;4.40;4.10;;;23.40;83.50;;;;;;5033834;28;20182;-64
2023/07/15 04:21:10;;;;;;;4.63;4.33;;;23.40;83.90;;;;;;5034816;28;20421;-61
2023/07/15 04:23:36;;;;;;;5.00;4.70;;;23.30;85.00;;;;;;5033847;28;20445;-65
2023/07/15 04:26:02;;;;;;;5.03;4.73;;;23.30;84.80;;;;;;5033719;28;20435;-65
2023/07/15 04:28:28;;;;;;;5.00;4.70;;;23.30;85.80;;;;;;5032999;28;20264;-62
2023/07/15 04:30:53;;;;;;;4.93;4.63;;;23.30;86.00;;;;;;5034019;28;20569;-65
2023/07/15 04:33:20;;;;;;;5.43;5.03;;;23.30;86.00;;;;;;5032732;28;20198;-64
2023/07/15 04:35:46;;;;;;;5.23;4.83;;;23.30;86.10;;;;;;5033828;28;20236;-65
2023/07/15 04:38:12;;;;;;;5.00;4.70;;;23.20;87.00;;;;;;5033827;28;20417;-64
2023/07/15 04:40:38;;;;;;;4.80;4.50;;;23.20;86.50;;;;;;5033577;28;20182;-64
2023/07/15 04:43:03;;;;;;;6.17;4.63;;;23.20;86.90;;;;;;5032120;28;21188;-64
2023/07/15 04:45:31;;;;;;;4.53;4.20;;;23.20;87.50;;;;;;5032926;28;20282;-64
2023/07/15 04:47:57;;;;;;;9.10;8.30;;;23.20;88.60;;;;;;5033212;28;20205;-65
2023/07/15 04:50:23;;;;;;;7.60;6.90;;;23.20;89.60;;;;;;5032193;28;20429;-65
2023/07/15 04:52:48;;;;;;;5.73;5.33;;;23.30;90.40;;;;;;5016289;28;20182;-64
2023/07/15 04:55:14;;;;;;;4.97;4.57;;;23.30;90.30;;;;;;5033261;28;20269;-64
2023/07/15 04:57:40;;;;;;;4.80;4.50;;;23.30;90.50;;;;;;5033028;28;20186;-64
2023/07/15 05:00:11;;;;;;;5.00;4.70;;;23.30;90.30;;;;;;5032876;28;20768;-64
2023/07/15 05:02:39;;;;;;;5.10;4.80;;;23.30;91.30;;;;;;5033342;28;20505;-65
2023/07/15 05:05:06;;;;;;;4.60;4.30;;;23.30;91.20;;;;;;5032581;28;20932;-65
2023/07/15 05:07:32;;;;;;;4.70;4.40;;;23.30;90.90;;;;;;5032530;28;20410;-64
2023/07/15 05:09:59;;;;;;;4.60;4.20;;;23.30;91.00;;;;;;5033676;28;20421;-64
2023/07/15 05:12:28;;;;;;;5.57;5.17;;;23.30;92.60;;;;;;5032076;28;20441;-65
2023/07/15 05:14:54;;;;;;;4.67;4.37;;;23.30;93.70;;;;;;5032078;28;20467;-64
2023/07/15 05:17:20;;;;;;;8.03;7.43;;;23.30;93.20;;;;;;5014626;28;20429;-64
2023/07/15 05:19:46;;;;;;;5.13;4.73;;;23.30;93.00;;;;;;5033363;28;20182;-64
2023/07/15 05:22:12;;;;;;;4.43;4.10;;;23.30;93.10;;;;;;5031582;28;20229;-62
2023/07/15 05:24:38;;;;;;;4.43;4.13;;;23.40;93.10;;;;;;5030538;28;20186;-64
2023/07/15 05:27:05;;;;;;;5.03;4.53;;;23.40;93.90;;;;;;5022105;28;20932;-65
2023/07/15 05:29:31;;;;;;;6.93;6.30;;;23.40;93.70;;;;;;5031755;28;21099;-64
2023/07/15 05:31:57;;;;;;;5.50;4.90;;;23.40;92.60;;;;;;5032139;28;20425;-64
2023/07/15 05:34:22;;;;;;;4.50;4.20;;;23.40;92.50;;;;;;5032375;28;20585;-64
2023/07/15 05:36:48;;;;;;;5.47;5.07;;;23.50;90.00;;;;;;5031464;28;20240;-64
2023/07/15 05:39:14;;;;;;;4.70;4.33;;;23.50;89.90;;;;;;5032419;28;20758;-63
2023/07/15 05:41:40;;;;;;;4.10;3.80;;;23.60;90.10;;;;;;5033153;28;20189;-64
2023/07/15 05:44:06;;;;;;;9.60;8.63;;;23.50;86.30;;;;;;5031695;28;20642;-64
2023/07/15 05:46:32;;;;;;;8.93;8.13;;;23.70;91.10;;;;;;5030339;28;20270;-64
2023/07/15 05:48:58;;;;;;;6.70;6.13;;;23.80;91.30;;;;;;5032064;28;20416;-64
2023/07/15 05:51:26;;;;;;;4.93;4.63;;;23.80;86.60;;;;;;5029472;28;20521;-63
2023/07/15 05:53:52;;;;;;;4.00;3.80;;;23.90;86.20;;;;;;5033029;28;20425;-64
2023/07/15 05:56:18;;;;;;;5.00;4.60;;;24.00;84.40;;;;;;5021404;28;20425;-64
2023/07/15 05:58:44;;;;;;;4.00;3.70;;;24.10;83.50;;;;;;5031760;28;20806;-64
2023/07/15 06:01:09;;;;;;;4.60;4.20;;;24.20;83.40;;;;;;5014494;28;20211;-64
2023/07/15 06:03:35;;;;;;;4.43;3.97;;;24.30;82.10;;;;;;5031325;28;20288;-63
2023/07/15 06:06:04;;;;;;;4.90;4.00;;;24.30;81.10;;;;;;5033251;28;20669;-64
2023/07/15 06:08:31;;;;;;;4.30;4.10;;;24.40;81.70;;;;;;5031496;28;20273;-63
2023/07/15 06:10:57;;;;;;;5.40;3.73;;;24.50;82.00;;;;;;5031184;28;20784;-63
2023/07/15 06:13:23;;;;;;;4.33;3.93;;;24.50;79.60;;;;;;5032374;28;20459;-64
2023/07/15 06:15:50;;;;;;;4.60;4.30;;;24.60;80.20;;;;;;5020953;28;20218;-62
2023/07/15 06:18:16;;;;;;;6.63;4.20;;;24.70;79.30;;;;;;5011426;28;20458;-64
2023/07/15 06:20:43;;;;;;;3.80;3.50;;;24.70;79.00;;;;;;5012816;28;20556;-64
2023/07/15 06:23:09;;;;;;;3.77;3.57;;;24.80;78.40;;;;;;5007928;28;20461;-63
2023/07/15 06:25:37;;;;;;;3.97;3.70;;;24.80;78.00;;;;;;5010957;28;20575;-63
2023/07/15 06:28:03;;;;;;;3.50;3.30;;;24.90;80.00;;;;;;5011522;28;20517;-64
2023/07/15 06:30:29;;;;;;;3.90;3.10;;;25.00;78.90;;;;;;4992543;28;20432;-65
2023/07/15 06:32:55;;;;;;;3.50;3.30;;;25.10;78.80;;;;;;5010421;28;20823;-66
2023/07/15 06:35:21;;;;;;;3.90;3.70;;;25.10;76.60;;;;;;5009384;28;20258;-65
2023/07/15 06:37:48;;;;;;;3.70;3.40;;;25.20;78.00;;;;;;5012215;28;20512;-65
2023/07/15 06:40:20;;;;;;;3.90;3.60;;;25.20;77.60;;;;;;4994557;28;20171;-64
2023/07/15 06:42:46;;;;;;;3.73;3.33;;;25.20;77.00;;;;;;4993173;28;20463;-65
2023/07/15 06:45:13;;;;;;;3.30;3.10;;;25.20;75.80;;;;;;4990130;28;20442;-66
2023/07/15 06:47:39;;;;;;;3.67;3.40;;;25.30;77.70;;;;;;5012085;28;20425;-67
2023/07/15 06:50:05;;;;;;;4.00;3.80;;;25.30;76.70;;;;;;5012543;28;20410;-66
2023/07/15 06:52:31;;;;;;;3.40;3.20;;;25.40;77.10;;;;;;5010233;28;20190;-66
2023/07/15 06:54:57;;;;;;;3.90;3.50;;;25.50;77.70;;;;;;5011716;28;20465;-67
2023/07/15 06:57:23;;;;;;;4.03;3.83;;;25.50;77.60;;;;;;5010006;28;20479;-66
2023/07/15 06:59:48;;;;;;;4.03;3.60;;;25.60;78.30;;;;;;5011508;28;20508;-66
2023/07/15 07:02:14;;;;;;;3.47;3.27;;;25.70;77.50;;;;;;4994585;28;20198;-68
2023/07/15 07:04:40;;;;;;;3.60;3.40;;;25.70;76.80;;;;;;4990361;28;20186;-66
2023/07/15 07:07:06;;;;;;;3.83;3.63;;;25.70;77.20;;;;;;5011381;28;20476;-67
2023/07/15 07:09:31;;;;;;;3.53;3.33;;;25.70;76.50;;;;;;5015991;28;20184;-68
2023/07/15 07:11:58;;;;;;;56.23;45.83;;;25.90;76.60;;;;;;5015662;28;20627;-67
2023/07/15 07:14:24;;;;;;;15.43;14.00;;;25.90;77.10;;;;;;5010708;28;20643;-67
2023/07/15 07:16:50;;;;;;;4.70;4.30;;;26.00;76.60;;;;;;5010837;28;20473;-68
2023/07/15 07:19:15;;;;;;;12.20;11.00;;;26.00;76.10;;;;;;5009700;28;20909;-67
2023/07/15 07:21:42;;;;;;;12.60;11.43;;;26.10;76.70;;;;;;5009559;28;20285;-67
2023/07/15 07:24:10;;;;;;;3.80;3.60;;;26.10;78.30;;;;;;5010603;28;20229;-67
2023/07/15 07:26:36;;;;;;;3.27;2.97;;;26.10;75.70;;;;;;5010617;28;20431;-67
2023/07/15 07:29:01;;;;;;;3.70;3.50;;;26.10;75.00;;;;;;5011945;28;20460;-65
2023/07/15 07:31:27;;;;;;;3.80;3.60;;;26.10;75.70;;;;;;5010486;28;20430;-68
2023/07/15 07:33:53;;;;;;;4.10;3.90;;;26.20;75.60;;;;;;5011734;28;20179;-67
2023/07/15 07:36:19;;;;;;;3.83;3.57;;;26.20;76.60;;;;;;5011629;28;20178;-63
2023/07/15 07:38:45;;;;;;;4.47;4.17;;;26.20;76.30;;;;;;5010710;28;20249;-67
2023/07/15 07:41:12;;;;;;;3.90;3.70;;;26.20;75.10;;;;;;5010834;28;20286;-67
2023/07/15 07:43:39;;;;;;;4.53;4.33;;;26.30;75.00;;;;;;5011352;28;20453;-67
2023/07/15 07:46:08;;;;;;;4.00;3.80;;;26.20;75.70;;;;;;5011553;28;20437;-67
2023/07/15 07:48:34;;;;;;;4.20;3.90;;;26.20;75.90;;;;;;5013546;28;20501;-67
2023/07/15 07:51:01;;;;;;;4.50;4.10;;;26.20;76.50;;;;;;5015509;28;20533;-66
2023/07/15 07:53:27;;;;;;;4.13;3.87;;;26.20;76.90;;;;;;5014388;28;20491;-68
2023/07/15 07:55:53;;;;;;;4.17;3.80;;;26.20;77.30;;;;;;5014477;28;20897;-68
2023/07/15 07:58:19;;;;;;;4.37;4.03;;;26.20;76.10;;;;;;5016124;28;20425;-68
2023/07/15 08:00:45;;;;;;;4.00;3.70;;;26.20;77.40;;;;;;5015132;28;20390;-68
2023/07/15 08:03:11;;;;;;;4.10;3.80;;;26.20;77.40;;;;;;5014084;28;20458;-68
2023/07/15 08:05:45;;;;;;;4.20;3.80;;;26.20;77.50;;;;;;5015464;28;20421;-68
2023/07/15 08:08:12;;;;;;;3.50;3.20;;;26.20;77.30;;;;;;5015006;28;20190;-67
2023/07/15 08:10:38;;;;;;;3.23;3.13;;;26.20;77.70;;;;;;5012889;28;20429;-68
2023/07/15 08:13:05;;;;;;;3.50;3.20;;;26.10;78.10;;;;;;5015049;28;20429;-68
2023/07/15 08:15:32;;;;;;;3.53;3.33;;;26.20;78.50;;;;;;5022841;28;20544;-64
2023/07/15 08:17:58;;;;;;;3.70;3.40;;;26.20;78.70;;;;;;5033779;28;20420;-64
2023/07/15 08:20:24;;;;;;;3.03;2.83;;;26.00;78.30;;;;;;5034054;28;20432;-64
2023/07/15 08:22:50;;;;;;;3.43;3.20;;;26.10;79.20;;;;;;5034961;28;20198;-64
2023/07/15 08:25:15;;;;;;;3.60;3.40;;;26.10;78.60;;;;;;5032783;28;20265;-63
2023/07/15 08:27:41;;;;;;;3.77;3.57;;;26.00;78.60;;;;;;5039334;28;20178;-66
2023/07/15 08:30:07;;;;;;;3.60;3.40;;;26.10;78.20;;;;;;5043464;28;20203;-66
2023/07/15 08:32:33;;;;;;;3.83;3.63;;;26.00;78.80;;;;;;5034506;28;20597;-66
2023/07/15 08:34:59;;;;;;;3.33;3.23;;;26.00;79.00;;;;;;5042529;28;20520;-66
2023/07/15 08:37:28;;;;;;;4.00;3.80;;;25.90;79.70;;;;;;5050670;28;20183;-66
2023/07/15 08:39:54;;;;;;;4.13;3.47;;;25.90;80.70;;;;;;5034747;28;20487;-67
2023/07/15 08:42:20;;;;;;;4.30;3.90;;;25.80;79.70;;;;;;5033836;28;20967;-67
2023/07/15 08:44:47;;;;;;;3.80;3.60;;;25.70;81.00;;;;;;5033369;28;20183;-67
2023/07/15 08:47:19;;;;;;;3.77;3.57;;;25.70;81.40;;;;;;5035216;28;20206;-65
2023/07/15 08:49:46;;;;;;;3.90;3.70;;;25.70;81.60;;;;;;5033501;28;20461;-67
2023/07/15 08:52:13;;;;;;;4.40;4.00;;;25.40;82.90;;;;;;5034226;28;20433;-72
2023/07/15 08:54:39;;;;;;;3.90;3.60;;;25.30;84.10;;;;;;5032391;28;20439;-66
2023/07/15 08:57:08;;;;;;;3.83;3.63;;;25.10;85.50;;;;;;5035127;28;20421;-62
2023/07/15 08:59:35;;;;;;;3.60;3.40;;;25.10;86.00;;;;;;5030525;28;20518;-62
2023/07/15 09:02:01;;;;;;;4.20;3.90;;;25.10;86.80;;;;;;5020747;28;20555;-61
2023/07/15 09:04:27;;;;;;;3.70;3.50;;;25.00;88.10;;;;;;5034389;28;20531;-62
2023/07/15 09:06:54;;;;;;;4.27;3.77;;;25.00;89.10;;;;;;5024357;28;20186;-62
2023/07/15 09:09:46;;;;;;;4.30;4.00;;;24.90;90.10;;;;;;5040656;28;20216;-62
2023/07/15 09:12:12;;;;;;;4.67;4.20;;;24.90;91.00;;;;;;5029582;28;20444;-62
2023/07/15 09:14:46;;;;;;;4.00;3.70;;;24.70;91.90;;;;;;5032430;28;20429;-61
2023/07/15 09:17:17;;;;;;;4.57;4.27;;;24.70;92.50;;;;;;5025588;28;20197;-62
2023/07/15 09:19:43;;;;;;;4.20;3.90;;;24.70;94.10;;;;;;5022021;28;20428;-62
2023/07/15 09:22:09;;;;;;;4.93;4.53;;;24.70;96.80;;;;;;5015774;28;21038;-62
2023/07/15 09:24:39;;;;;;;7.90;4.03;;;24.50;98.10;;;;;;5016330;28;20430;-59
2023/07/15 09:27:06;;;;;;;5.07;4.63;;;24.40;99.70;;;;;;5014240;28;20537;-59
2023/07/15 09:29:32;;;;;;;4.60;4.20;;;24.00;99.90;;;;;;5017376;28;20429;-62
2023/07/15 09:31:58;;;;;;;4.77;4.37;;;23.90;99.90;;;;;;5029480;28;20504;-62
2023/07/15 09:34:25;;;;;;;7.63;4.50;;;23.70;99.90;;;;;;5014532;28;20497;-62
2023/07/15 09:36:54;;;;;;;4.63;4.33;;;23.70;99.90;;;;;;5013260;28;20992;-62
2023/07/15 09:39:22;;;;;;;4.80;4.50;;;23.60;99.90;;;;;;5013537;28;20432;-62
2023/07/15 09:42:05;;;;;;;5.37;4.87;;;23.50;99.90;;;;;;5011714;28;20432;-62
2023/07/15 09:44:37;;;;;;;4.87;4.20;;;23.40;99.90;;;;;;4993891;28;20966;-62
2023/07/15 09:47:04;;;;;;;4.90;4.50;;;23.40;99.90;;;;;;5008293;28;20430;-62
2023/07/15 09:49:31;;;;;;;5.03;4.70;;;23.30;99.90;;;;;;5012537;28;20528;-62
2023/07/15 09:51:57;;;;;;;4.90;4.53;;;23.20;99.90;;;;;;5014311;28;20406;-62
2023/07/15 09:54:25;;;;;;;5.10;4.80;;;23.20;99.90;;;;;;5012999;28;20426;-62
2023/07/15 09:56:56;;;;;;;4.57;4.30;;;23.00;99.90;;;;;;5012622;28;20441;-62
2023/07/15 09:59:25;;;;;;;4.77;4.47;;;22.80;99.90;;;;;;4995554;28;20762;-61
2023/07/15 10:01:59;;;;;;;5.40;5.10;;;22.60;99.90;;;;;;5013227;28;20414;-61
2023/07/15 10:04:29;;;;;;;4.80;4.50;;;22.50;99.90;;;;;;5011920;28;20429;-61
2023/07/15 10:06:55;;;;;;;4.57;4.27;;;22.50;99.90;;;;;;5011956;28;20989;-61
2023/07/15 10:09:21;;;;;;;4.90;4.50;;;22.50;99.90;;;;;;5012829;28;20478;-61
2023/07/15 10:11:48;;;;;;;5.43;5.03;;;22.40;99.90;;;;;;5012871;28;20649;-61
2023/07/15 10:14:15;;;;;;;5.10;4.70;;;22.30;99.90;;;;;;5012265;28;20425;-61
2023/07/15 10:16:41;;;;;;;5.10;4.70;;;22.30;99.90;;;;;;5009025;28;20458;-62
2023/07/15 10:19:44;;;;;;;4.77;4.47;;;22.20;99.90;;;;;;5013176;28;20407;-66
2023/07/15 10:22:11;;;;;;;4.53;4.27;;;22.10;99.90;;;;;;5011155;28;20305;-66
2023/07/15 10:24:41;;;;;;;4.73;4.33;;;22.10;99.90;;;;;;5011421;28;20421;-66
2023/07/15 10:27:10;;;;;;;53.43;42.90;;;21.90;99.90;;;;;;5009535;28;20422;-65
2023/07/15 10:29:42;;;;;;;30.60;27.20;;;21.80;99.90;;;;;;5012037;28;20504;-64
2023/07/15 10:32:16;;;;;;;5.80;5.40;;;21.90;99.90;;;;;;5009648;28;20445;-66
2023/07/15 10:34:52;;;;;;;5.37;5.07;;;21.90;99.90;;;;;;5010099;28;20991;-66
2023/07/15 10:37:19;;;;;;;5.73;5.30;;;21.90;99.90;;;;;;5011038;28;20537;-67
2023/07/15 10:39:46;;;;;;;4.90;4.60;;;22.10;99.90;;;;;;4996252;28;20505;-66
2023/07/15 10:42:14;;;;;;;5.33;4.93;;;22.20;99.90;;;;;;5013197;28;20462;-66
2023/07/15 10:44:55;;;;;;;6.60;6.00;;;22.30;99.90;;;;;;5011276;28;20438;-66
2023/07/15 10:47:21;;;;;;;8.03;7.33;;;22.40;99.90;;;;;;5012457;28;20532;-66
2023/07/15 10:49:48;;;;;;;6.13;5.70;;;22.50;99.90;;;;;;5011810;28;20438;-66
2023/07/15 10:52:23;;;;;;;5.40;4.90;;;22.80;99.90;;;;;;5013275;28;20505;-67
2023/07/15 10:54:52;;;;;;;8.03;7.40;;;22.80;99.90;;;;;;5011610;28;20425;-66
2023/07/15 10:57:19;;;;;;;6.17;5.77;;;22.90;99.90;;;;;;5012188;28;20476;-66
2023/07/15 10:59:46;;;;;;;6.47;5.97;;;23.00;99.90;;;;;;5012802;28;20426;-66
2023/07/15 11:02:12;;;;;;;4.93;4.63;;;23.10;99.90;;;;;;5012250;28;20454;-66
2023/07/15 11:04:40;;;;;;;4.27;4.00;;;23.30;99.90;;;;;;5011467;28;20429;-66
2023/07/15 11:07:12;;;;;;;3.80;3.60;;;23.40;99.90;;;;;;5013076;28;20410;-66
2023/07/15 11:09:39;;;;;;;4.20;4.00;;;23.30;99.90;;;;;;5011497;28;20422;-66
2023/07/15 11:12:10;;;;;;;4.30;4.00;;;23.20;99.90;;;;;;5012125;28;20925;-66
2023/07/15 11:14:43;;;;;;;4.43;4.13;;;23.20;99.90;;;;;;5011947;28;20434;-65
2023/07/15 11:17:09;;;;;;;5.60;5.13;;;23.20;99.90;;;;;;5031388;28;20452;-66
2023/07/15 11:19:35;;;;;;;5.93;5.53;;;22.90;99.90;;;;;;5030853;28;20814;-65
2023/07/15 11:22:05;;;;;;;5.20;4.80;;;22.70;99.90;;;;;;5030722;28;20480;-66
2023/07/15 11:24:31;;;;;;;4.83;4.37;;;22.70;99.90;;;;;;5032513;28;20170;-66
2023/07/15 11:27:01;;;;;;;4.53;4.33;;;22.70;99.90;;;;;;5014059;28;20910;-66
2023/07/15 11:29:26;;;;;;;5.27;4.90;;;22.70;99.90;;;;;;5031489;28;20429;-67
2023/07/15 11:31:53;;;;;;;76.90;60.73;;;22.80;99.90;;;;;;5014255;28;20415;-66
2023/07/15 11:34:21;;;;;;;15.10;13.57;;;23.00;99.90;;;;;;5030302;28;20179;-65
2023/07/15 11:36:49;;;;;;;20.20;18.30;;;23.10;99.90;;;;;;5012802;28;20425;-66
2023/07/15 11:39:15;;;;;;;5.30;5.00;;;23.30;99.90;;;;;;5031680;28;20425;-65
2023/07/15 11:41:42;;;;;;;19.03;17.33;;;23.50;99.90;;;;;;5029045;28;20798;-66
2023/07/15 11:44:15;;;;;;;7.40;6.80;;;23.80;99.90;;;;;;5031995;28;20567;-67
2023/07/15 11:46:45;;;;;;;7.77;7.17;;;24.00;99.90;;;;;;5031143;28;20436;-67
2023/07/15 11:49:12;;;;;;;4.43;4.23;;;24.10;99.90;;;;;;5050508;28;20419;-67
2023/07/15 11:51:42;;;;;;;4.50;4.20;;;24.30;99.90;;;;;;5037274;28;20432;-66
2023/07/15 11:54:12;;;;;;;7.43;6.90;;;24.30;99.90;;;;;;5031298;28;20417;-67
2023/07/15 11:56:40;;;;;;;4.83;4.53;;;24.30;99.90;;;;;;5030970;28;20516;-65
2023/07/15 11:59:07;;;;;;;4.30;4.10;;;24.50;99.90;;;;;;5030576;28;20420;-67
2023/07/15 12:01:33;;;;;;;4.70;4.50;;;24.50;99.90;;;;;;5022956;28;20436;-67
2023/07/15 12:04:00;;;;;;;5.00;4.60;;;24.60;99.90;;;;;;5030735;28;20456;-67
2023/07/15 12:06:27;;;;;;;4.33;4.03;;;24.90;99.90;;;;;;5030853;28;20463;-66
2023/07/15 12:09:10;;;;;;;4.70;4.40;;;25.10;99.90;;;;;;5028293;28;20421;-67
2023/07/15 12:11:37;;;;;;;3.97;3.77;;;25.10;99.90;;;;;;5019651;28;20900;-67
2023/07/15 12:14:04;;;;;;;4.93;4.63;;;25.20;99.90;;;;;;5030510;28;20931;-66
2023/07/15 12:16:32;;;;;;;4.00;3.80;;;25.20;99.90;;;;;;5013222;28;20961;-67
2023/07/15 12:18:59;;;;;;;4.50;4.10;;;25.20;99.90;;;;;;5010510;28;20433;-67
2023/07/15 12:21:25;;;;;;;4.53;4.23;;;25.10;99.90;;;;;;4995682;28;20845;-67
2023/07/15 12:23:51;;;;;;;5.50;4.57;;;25.10;99.90;;;;;;5009982;28;20450;-66
2023/07/15 12:26:18;;;;;;;4.40;4.20;;;25.00;99.90;;;;;;5011798;28;20455;-67
2023/07/15 12:28:44;;;;;;;4.33;4.03;;;25.00;99.90;;;;;;5009535;28;20647;-67
2023/07/15 12:31:10;;;;;;;4.50;4.20;;;25.00;99.90;;;;;;5009915;28;20438;-67
2023/07/15 12:33:38;;;;;;;5.00;4.70;;;24.90;99.90;;;;;;5012351;28;20752;-62
2023/07/15 12:36:05;;;;;;;4.90;4.50;;;24.90;99.90;;;;;;5014163;28;20426;-67
2023/07/15 12:38:30;;;;;;;4.00;3.80;;;25.00;99.90;;;;;;5013701;28;20923;-66
2023/07/15 12:40:56;;;;;;;4.90;4.60;;;25.10;99.90;;;;;;5013320;28;20624;-66
2023/07/15 12:43:23;;;;;;;6.30;5.10;;;25.10;99.90;;;;;;5014829;28;20349;-65
2023/07/15 12:45:50;;;;;;;5.00;4.80;;;25.00;99.90;;;;;;5009480;28;20437;-66